createdAt,value
2019-05-10T00:00:29.990Z,0.77
2019-05-10T00:03:16.545Z,1.70
2019-05-10T00:06:03.332Z,1.20
2019-05-10T00:08:46.818Z,1.80
2019-05-10T00:11:19.861Z,1.07
2019-05-10T00:14:06.367Z,1.17
2019-05-10T00:16:35.229Z,1.83
2019-05-10T00:19:03.919Z,0.73
2019-05-10T00:21:32.603Z,0.93
2019-05-10T00:24:01.089Z,2.03
2019-05-10T00:26:29.778Z,0.77
2019-05-10T00:28:58.388Z,0.67
2019-05-10T00:31:26.945Z,1.77
2019-05-10T00:33:55.479Z,1.10
2019-05-10T00:36:24.113Z,0.87
2019-05-10T00:38:52.710Z,0.40
2019-05-10T00:41:21.335Z,0.93
2019-05-10T00:43:50.022Z,1.07
2019-05-10T00:46:18.582Z,1.20
2019-05-10T00:48:47.250Z,1.00
2019-05-10T00:51:16.017Z,0.73
2019-05-10T00:53:44.629Z,1.80
2019-05-10T00:56:13.342Z,1.43
2019-05-10T00:58:41.957Z,1.60
2019-05-10T01:01:10.730Z,1.17
2019-05-10T01:03:39.265Z,0.67
2019-05-10T01:06:07.841Z,2.10
2019-05-10T01:08:36.380Z,1.97
2019-05-10T01:11:05.011Z,1.03
2019-05-10T01:13:33.637Z,2.83
2019-05-10T01:16:02.690Z,0.87
2019-05-10T01:18:31.211Z,1.47
2019-05-10T01:20:59.841Z,1.40
2019-05-10T01:23:28.510Z,1.10
2019-05-10T01:25:57.136Z,1.73
2019-05-10T01:28:25.810Z,0.70
2019-05-10T01:30:54.375Z,1.03
2019-05-10T01:33:22.912Z,1.13
2019-05-10T01:35:51.587Z,3.07
2019-05-10T01:38:20.182Z,1.37
2019-05-10T01:40:48.790Z,0.97
2019-05-10T01:43:17.426Z,0.80
2019-05-10T01:45:46.033Z,1.67
2019-05-10T01:48:14.590Z,1.73
2019-05-10T01:50:44.184Z,1.97
2019-05-10T01:53:12.885Z,0.57
2019-05-10T01:55:51.508Z,1.37
2019-05-10T01:58:11.697Z,2.37
2019-05-10T02:00:40.219Z,0.97
2019-05-10T02:03:08.853Z,1.00
2019-05-10T02:05:37.459Z,0.77
2019-05-10T02:08:06.194Z,1.23
2019-05-10T02:10:34.763Z,2.17
2019-05-10T02:13:03.395Z,1.30
2019-05-10T02:15:32.010Z,1.33
2019-05-10T02:18:00.571Z,1.13
2019-05-10T02:20:29.050Z,1.13
2019-05-10T02:22:57.664Z,1.50
2019-05-10T02:25:26.262Z,1.07
2019-05-10T02:27:54.834Z,0.50
2019-05-10T02:30:28.248Z,1.97
2019-05-10T02:32:56.879Z,1.03
2019-05-10T02:35:25.431Z,1.13
2019-05-10T02:37:54.143Z,1.07
2019-05-10T02:40:22.842Z,1.10
2019-05-10T02:42:51.459Z,0.70
2019-05-10T02:45:20.362Z,1.53
2019-05-10T02:47:48.913Z,1.57
2019-05-10T02:50:17.721Z,1.20
2019-05-10T02:52:46.413Z,0.87
2019-05-10T02:55:15.111Z,1.07
2019-05-10T02:57:44.420Z,1.17
2019-05-10T03:00:13.402Z,1.50
2019-05-10T03:02:43.577Z,1.33
2019-05-10T03:05:12.295Z,1.43
2019-05-10T03:07:40.979Z,2.07
2019-05-10T03:10:11.551Z,2.20
2019-05-10T03:12:41.594Z,1.00
2019-05-10T03:15:12.215Z,2.07
2019-05-10T03:17:41.942Z,1.00
2019-05-10T03:20:11.639Z,0.87
2019-05-10T03:22:43.895Z,2.00
2019-05-10T03:25:13.337Z,1.17
2019-05-10T03:27:42.327Z,0.80
2019-05-10T03:30:11.271Z,1.37
2019-05-10T03:32:39.987Z,1.47
2019-05-10T03:35:09.616Z,0.60
2019-05-10T03:37:38.876Z,1.40
2019-05-10T03:40:08.759Z,3.23
2019-05-10T03:42:37.445Z,1.50
2019-05-10T03:45:08.762Z,1.27
2019-05-10T03:47:37.371Z,5.70
2019-05-10T03:50:07.396Z,1.43
2019-05-10T03:52:36.134Z,0.87
2019-05-10T03:55:05.846Z,0.77
2019-05-10T03:57:34.458Z,1.77
2019-05-10T04:00:04.791Z,2.23
2019-05-10T04:02:33.334Z,1.07
2019-05-10T04:05:01.906Z,1.70
2019-05-10T04:07:30.606Z,1.73
2019-05-10T04:09:59.407Z,1.97
2019-05-10T04:12:28.095Z,1.47
2019-05-10T04:14:56.628Z,1.07
2019-05-10T04:17:25.286Z,1.70
2019-05-10T04:19:53.815Z,2.50
2019-05-10T04:22:22.515Z,1.37
2019-05-10T04:24:53.136Z,2.17
2019-05-10T04:27:31.294Z,0.80
2019-05-10T04:29:52.116Z,1.23
2019-05-10T04:32:20.760Z,1.43
2019-05-10T04:34:49.551Z,0.80
2019-05-10T04:37:18.258Z,1.77
2019-05-10T04:39:47.736Z,4.50
2019-05-10T04:42:16.695Z,1.70
2019-05-10T04:44:46.128Z,1.57
2019-05-10T04:47:21.265Z,0.90
2019-05-10T04:49:49.854Z,1.50
2019-05-10T04:52:18.455Z,3.37
2019-05-10T04:54:47.058Z,2.00
2019-05-10T04:57:15.872Z,2.20
2019-05-10T04:59:44.780Z,3.27
2019-05-10T05:02:13.466Z,2.20
2019-05-10T05:04:42.078Z,2.00
2019-05-10T05:07:10.712Z,1.30
2019-05-10T05:09:39.389Z,2.10
2019-05-10T05:12:08.163Z,1.07
2019-05-10T05:14:36.767Z,1.80
2019-05-10T05:17:05.522Z,1.37
2019-05-10T05:19:34.175Z,1.63
2019-05-10T05:22:02.874Z,1.67
2019-05-10T05:24:31.546Z,3.77
2019-05-10T05:27:00.202Z,0.77
2019-05-10T05:29:28.741Z,1.93
2019-05-10T05:32:01.384Z,3.70
2019-05-10T05:34:27.662Z,1.40
2019-05-10T05:36:56.290Z,1.73
2019-05-10T05:39:24.834Z,1.70
2019-05-10T05:41:56.597Z,2.10
2019-05-10T05:44:26.221Z,1.70
2019-05-10T05:46:53.872Z,1.57
2019-05-10T05:49:23.973Z,2.50
2019-05-10T05:51:52.723Z,1.90
2019-05-10T05:54:22.691Z,1.57
2019-05-10T05:56:53.105Z,2.73
2019-05-10T05:59:23.623Z,2.37
2019-05-10T06:01:51.965Z,2.17
2019-05-10T06:04:21.222Z,1.80
2019-05-10T06:06:53.696Z,4.03
2019-05-10T06:09:20.413Z,1.20
2019-05-10T06:11:49.100Z,2.10
2019-05-10T06:14:17.804Z,3.60
2019-05-10T06:16:51.050Z,2.07
2019-05-10T06:19:20.521Z,4.90
2019-05-10T06:21:48.555Z,2.10
2019-05-10T06:24:17.254Z,2.47
2019-05-10T06:26:45.803Z,1.83
2019-05-10T06:29:17.663Z,3.03
2019-05-10T06:31:44.710Z,1.43
2019-05-10T06:34:13.386Z,1.23
2019-05-10T06:36:42.052Z,1.43
2019-05-10T06:39:30.036Z,1.53
2019-05-10T06:41:58.631Z,1.73
2019-05-10T06:44:31.424Z,0.70
2019-05-10T06:47:02.168Z,1.70
2019-05-10T06:49:27.930Z,3.40
2019-05-10T06:51:56.694Z,2.53
2019-05-10T06:54:25.230Z,1.23
2019-05-10T06:56:56.837Z,1.20
2019-05-10T06:59:26.364Z,1.30
2019-05-10T07:01:55.131Z,0.87
2019-05-10T07:04:23.766Z,1.67
2019-05-10T07:06:52.322Z,1.30
2019-05-10T07:09:20.863Z,2.90
2019-05-10T07:11:49.548Z,3.67
2019-05-10T07:14:18.200Z,1.60
2019-05-10T07:16:46.946Z,2.20
2019-05-10T07:19:15.453Z,1.80
2019-05-10T07:21:47.905Z,1.10
2019-05-10T07:24:18.211Z,0.83
2019-05-10T07:26:46.836Z,1.07
2019-05-10T07:29:29.110Z,1.17
2019-05-10T07:31:45.850Z,2.83
2019-05-10T07:34:15.845Z,1.67
2019-05-10T07:36:44.864Z,2.97
2019-05-10T07:39:13.583Z,1.63
2019-05-10T07:41:42.380Z,1.70
2019-05-10T07:44:10.958Z,1.23
2019-05-10T07:46:45.689Z,2.50
2019-05-10T07:49:09.907Z,2.13
2019-05-10T07:51:38.585Z,0.70
2019-05-10T07:54:07.240Z,1.17
2019-05-10T07:56:38.994Z,0.50
2019-05-10T07:59:06.203Z,0.30
2019-05-10T08:01:35.039Z,2.10
2019-05-10T08:04:03.910Z,0.40
2019-05-10T08:06:40.369Z,0.60
2019-05-10T08:09:06.471Z,0.77
2019-05-10T08:11:33.137Z,1.00
2019-05-10T08:14:06.171Z,0.50
2019-05-10T08:16:31.904Z,1.03
2019-05-10T08:19:00.936Z,0.70
2019-05-10T08:21:32.232Z,1.37
2019-05-10T08:24:05.150Z,2.03
2019-05-10T08:26:32.762Z,1.80
2019-05-10T08:29:02.109Z,1.90
2019-05-10T08:31:39.910Z,1.17
2019-05-10T08:34:02.188Z,0.53
2019-05-10T08:36:32.193Z,0.67
2019-05-10T08:39:10.040Z,1.13
2019-05-10T08:41:32.618Z,1.57
2019-05-10T08:44:04.574Z,2.03
2019-05-10T08:46:40.158Z,2.17
2019-05-10T08:49:02.267Z,3.43
2019-05-10T08:51:32.295Z,2.13
2019-05-10T08:54:01.807Z,1.93
2019-05-10T08:56:33.033Z,1.83
2019-05-10T08:59:03.632Z,2.73
2019-05-10T09:01:38.435Z,1.80
2019-05-10T09:04:06.573Z,0.77
2019-05-10T09:06:32.732Z,1.33
2019-05-10T09:09:03.589Z,0.50
2019-05-10T09:11:32.808Z,1.43
2019-05-10T09:14:03.249Z,1.00
2019-05-10T09:16:39.246Z,0.80
2019-05-10T09:19:02.674Z,0.60
2019-05-10T09:21:32.165Z,1.60
2019-05-10T09:24:03.249Z,0.87
2019-05-10T09:26:32.194Z,0.70
2019-05-10T09:29:01.711Z,0.97
2019-05-10T09:31:32.644Z,1.00
2019-05-10T09:34:02.474Z,0.40
2019-05-10T09:36:36.033Z,1.47
2019-05-10T09:39:03.390Z,1.87
2019-05-10T09:41:33.784Z,1.10
2019-05-10T09:44:03.065Z,0.80
2019-05-10T09:46:32.491Z,3.13
2019-05-10T09:49:11.503Z,0.40
2019-05-10T09:51:33.162Z,0.50
2019-05-10T09:54:02.035Z,1.23
2019-05-10T09:56:33.015Z,2.43
2019-05-10T09:59:00.979Z,3.40
2019-05-10T10:01:29.625Z,2.53
2019-05-10T10:04:01.672Z,1.43
2019-05-10T10:06:29.756Z,0.90
2019-05-10T10:09:00.912Z,1.87
2019-05-10T10:11:28.990Z,1.97
2019-05-10T10:13:59.507Z,1.70
2019-05-10T10:16:28.260Z,2.77
2019-05-10T10:18:57.127Z,2.87
2019-05-10T10:21:35.020Z,0.83
2019-05-10T10:23:59.948Z,1.87
2019-05-10T10:26:26.889Z,1.40
2019-05-10T10:28:59.553Z,1.77
2019-05-10T10:31:30.407Z,0.90
2019-05-10T10:33:59.661Z,1.63
2019-05-10T10:36:27.466Z,1.83
2019-05-10T10:38:56.171Z,3.07
2019-05-10T10:41:31.183Z,2.37
2019-05-10T10:43:54.999Z,2.00
2019-05-10T10:46:23.650Z,5.00
2019-05-10T10:48:52.222Z,3.23
2019-05-10T10:51:20.769Z,1.80
2019-05-10T10:53:49.443Z,3.60
2019-05-10T10:56:18.125Z,2.83
2019-05-10T10:58:49.697Z,3.63
2019-05-10T11:01:24.991Z,3.27
2019-05-10T11:03:49.032Z,2.07
2019-05-10T11:06:17.868Z,1.60
2019-05-10T11:08:46.513Z,2.30
2019-05-10T11:11:15.125Z,1.20
2019-05-10T11:13:45.760Z,1.47
2019-05-10T11:16:15.695Z,2.40
2019-05-10T11:18:44.303Z,2.47
2019-05-10T11:21:12.988Z,2.90
2019-05-10T11:23:42.054Z,1.80
2019-05-10T11:26:11.040Z,1.90
2019-05-10T11:28:43.927Z,2.97
2019-05-10T11:31:11.421Z,1.20
2019-05-10T11:33:41.417Z,1.17
2019-05-10T11:36:11.487Z,2.20
2019-05-10T11:38:42.010Z,1.40
2019-05-10T11:41:13.587Z,1.57
2019-05-10T11:43:41.932Z,0.90
2019-05-10T11:46:11.759Z,1.23
2019-05-10T11:48:42.156Z,1.73
2019-05-10T11:51:16.032Z,1.23
2019-05-10T11:53:41.655Z,1.40
2019-05-10T11:56:14.152Z,1.03
2019-05-10T11:59:04.404Z,1.47
2019-05-10T12:03:42.362Z,1.53
2019-05-10T12:06:12.128Z,1.17
2019-05-10T12:08:41.814Z,0.67
2019-05-10T12:11:25.482Z,1.27
2019-05-10T12:13:41.153Z,1.07
2019-05-10T12:16:12.456Z,1.37
2019-05-10T12:18:50.248Z,0.60
2019-05-10T12:21:11.324Z,0.33
2019-05-10T12:26:19.410Z,0.87
2019-05-10T12:26:50.524Z,0.90
2019-05-10T12:28:40.946Z,1.00
2019-05-10T12:31:15.147Z,0.60
2019-05-10T12:33:42.974Z,2.07
2019-05-10T12:36:13.038Z,0.73
2019-05-10T12:38:40.387Z,0.77
2019-05-10T12:41:08.987Z,1.00
2019-05-10T12:43:37.550Z,0.93
2019-05-10T12:46:06.322Z,2.53
2019-05-10T12:48:35.951Z,0.57
2019-05-10T12:51:11.380Z,5.03
2019-05-10T12:53:36.828Z,1.80
2019-05-10T12:56:05.678Z,1.63
2019-05-10T12:58:34.245Z,0.70
2019-05-10T13:01:02.858Z,1.23
2019-05-10T13:03:33.693Z,0.43
2019-05-10T13:06:01.695Z,0.73
2019-05-10T13:08:30.338Z,0.50
2019-05-10T13:10:59.058Z,2.80
2019-05-10T13:13:30.088Z,1.90
2019-05-10T13:15:57.807Z,0.87
2019-05-10T13:18:48.113Z,0.40
2019-05-10T13:20:56.870Z,2.37
2019-05-10T13:23:25.804Z,0.97
2019-05-10T13:25:54.483Z,1.10
2019-05-10T13:28:23.633Z,0.40
2019-05-10T13:30:54.115Z,1.97
2019-05-10T13:33:28.925Z,0.87
2019-05-10T13:35:56.677Z,0.67
2019-05-10T13:38:26.635Z,0.73
2019-05-10T13:40:55.236Z,2.50
2019-05-10T13:43:26.629Z,1.07
2019-05-10T13:45:54.441Z,2.03
2019-05-10T13:48:26.119Z,1.77
2019-05-10T13:50:53.337Z,1.20
2019-05-10T13:53:23.283Z,0.60
2019-05-10T13:55:51.927Z,1.90
2019-05-10T13:58:20.542Z,0.67
2019-05-10T14:00:49.199Z,1.00
2019-05-10T14:03:17.818Z,0.47
2019-05-10T14:05:46.484Z,1.40
2019-05-10T14:08:15.339Z,1.30
2019-05-10T14:10:43.920Z,0.93
2019-05-10T14:13:16.376Z,0.60
2019-05-10T14:15:42.895Z,1.40
2019-05-10T14:18:11.545Z,1.13
2019-05-10T14:20:40.227Z,0.30
2019-05-10T14:23:09.092Z,1.07
2019-05-10T14:25:38.923Z,0.57
2019-05-10T14:28:09.514Z,0.93
2019-05-10T14:30:38.405Z,0.40
2019-05-10T14:33:08.729Z,0.93
2019-05-10T14:35:37.436Z,0.47
2019-05-10T14:38:08.451Z,0.30
2019-05-10T14:40:36.348Z,1.50
2019-05-10T14:43:04.902Z,0.83
2019-05-10T14:45:33.486Z,1.03
2019-05-10T14:48:02.201Z,0.40
2019-05-10T14:50:30.902Z,0.63
2019-05-10T14:52:59.445Z,0.73
2019-05-10T14:55:34.600Z,0.97
2019-05-10T14:57:58.433Z,0.83
2019-05-10T15:00:27.105Z,1.67
2019-05-10T15:02:56.653Z,1.00
2019-05-10T15:05:26.007Z,0.60
2019-05-10T15:07:54.552Z,1.60
2019-05-10T15:10:23.231Z,1.13
2019-05-10T15:12:51.935Z,0.60
2019-05-10T15:15:20.713Z,1.03
2019-05-10T15:17:55.021Z,0.67
2019-05-10T15:20:19.988Z,0.50
2019-05-10T15:22:48.543Z,0.40
2019-05-10T15:25:17.233Z,0.87
2019-05-10T15:27:45.793Z,1.70
2019-05-10T15:30:14.578Z,1.00
2019-05-10T15:32:43.145Z,3.40
2019-05-10T15:35:11.946Z,1.77
2019-05-10T15:37:45.769Z,1.27
2019-05-10T15:40:11.035Z,3.07
2019-05-10T15:42:39.568Z,1.37
2019-05-10T15:45:12.086Z,0.67
2019-05-10T15:47:50.536Z,3.03
2019-05-10T15:50:09.761Z,0.73
2019-05-10T15:52:39.733Z,1.27
2019-05-10T15:55:08.800Z,1.73
2019-05-10T15:57:37.465Z,2.30
2019-05-10T16:00:07.335Z,2.23
2019-05-10T16:02:35.945Z,1.37
2019-05-10T16:05:23.246Z,0.60
2019-05-10T16:07:37.435Z,4.20
2019-05-10T16:10:06.761Z,3.27
2019-05-10T16:12:37.876Z,1.43
2019-05-10T16:15:07.139Z,1.87
2019-05-10T16:17:35.820Z,1.17
2019-05-10T16:20:05.215Z,3.17
2019-05-10T16:22:33.905Z,0.93
2019-05-10T16:25:02.866Z,1.77
2019-05-10T16:27:34.111Z,2.87
2019-05-10T16:30:01.917Z,2.23
2019-05-10T16:32:34.753Z,1.30
2019-05-10T16:35:05.865Z,1.27
2019-05-10T16:37:30.964Z,0.87
2019-05-10T16:39:59.506Z,2.03
2019-05-10T16:42:34.547Z,0.93
2019-05-10T16:44:58.359Z,1.47
2019-05-10T16:47:27.180Z,0.77
2019-05-10T16:49:55.766Z,1.20
2019-05-10T16:52:26.116Z,1.17
2019-05-10T16:54:58.200Z,0.97
2019-05-10T16:57:24.917Z,1.90
2019-05-10T16:59:53.621Z,1.03
2019-05-10T17:02:22.333Z,1.73
2019-05-10T17:04:50.933Z,1.37
2019-05-10T17:07:20.646Z,1.33
2019-05-10T17:09:54.124Z,1.43
2019-05-10T17:12:27.569Z,0.60
2019-05-10T17:15:02.272Z,1.00
2019-05-10T17:17:31.129Z,0.70
2019-05-10T17:19:58.693Z,1.60
2019-05-10T17:22:27.291Z,1.20
2019-05-10T17:24:57.050Z,1.13
2019-05-10T17:27:26.265Z,1.87
2019-05-10T17:29:54.855Z,1.60
2019-05-10T17:32:24.546Z,0.97
2019-05-10T17:34:53.695Z,1.10
2019-05-10T17:37:22.226Z,1.50
2019-05-10T17:39:53.618Z,1.33
2019-05-10T17:42:21.070Z,3.00
2019-05-10T17:44:49.561Z,2.77
2019-05-10T17:47:18.098Z,2.90
2019-05-10T17:49:46.823Z,2.00
2019-05-10T17:52:15.406Z,1.50
2019-05-10T17:54:44.006Z,1.03
2019-05-10T17:57:16.882Z,2.60
2019-05-10T17:59:46.972Z,2.07
2019-05-10T18:02:13.293Z,2.67
2019-05-10T18:04:41.929Z,3.03
2019-05-10T18:07:10.647Z,1.83
2019-05-10T18:09:39.236Z,1.33
2019-05-10T18:12:07.817Z,2.50
2019-05-10T18:14:36.305Z,3.77
2019-05-10T18:17:07.221Z,2.37
2019-05-10T18:19:35.206Z,2.10
2019-05-10T18:22:06.464Z,1.30
2019-05-10T18:24:36.352Z,2.07
2019-05-10T18:27:04.482Z,2.97
2019-05-10T18:29:33.068Z,1.63
2019-05-10T18:32:01.590Z,1.20
2019-05-10T18:34:33.070Z,1.40
2019-05-10T18:37:00.338Z,1.30
2019-05-10T18:39:28.968Z,1.73
2019-05-10T18:41:57.554Z,2.07
2019-05-10T18:44:26.112Z,1.90
2019-05-10T18:46:54.707Z,1.20
2019-05-10T18:49:23.256Z,1.47
2019-05-10T18:51:51.851Z,2.50
2019-05-10T18:54:20.541Z,1.10
2019-05-10T18:56:49.112Z,2.17
2019-05-10T18:59:17.759Z,1.60
2019-05-10T19:01:46.471Z,2.27
2019-05-10T19:04:15.739Z,2.20
2019-05-10T19:06:50.219Z,2.20
2019-05-10T19:09:14.869Z,1.93
2019-05-10T19:11:43.579Z,2.20
2019-05-10T19:14:12.399Z,2.03
2019-05-10T19:16:41.122Z,3.77
2019-05-10T19:19:09.796Z,3.27
2019-05-10T19:21:38.461Z,5.13
2019-05-10T19:24:07.143Z,5.47
2019-05-10T19:26:35.750Z,9.13
2019-05-10T19:29:06.746Z,7.80
2019-05-10T19:31:37.890Z,3.90
2019-05-10T19:34:09.134Z,7.43
2019-05-10T19:36:35.292Z,3.40
2019-05-10T19:39:05.550Z,2.77
2019-05-10T19:41:34.167Z,2.57
2019-05-10T19:44:04.605Z,2.10
2019-05-10T19:46:39.329Z,2.50
2019-05-10T19:49:07.700Z,2.60
2019-05-10T19:51:34.305Z,3.80
2019-05-10T19:54:02.935Z,3.17
2019-05-10T19:56:37.075Z,4.53
2019-05-10T19:59:05.390Z,4.53
2019-05-10T20:01:32.268Z,3.60
2019-05-10T20:04:00.825Z,2.70
2019-05-10T20:06:29.379Z,4.77
2019-05-10T20:08:58.009Z,4.03
2019-05-10T20:11:26.539Z,3.47
2019-05-10T20:13:55.129Z,5.87
2019-05-10T20:16:23.714Z,2.90
2019-05-10T20:18:52.349Z,4.70
2019-05-10T20:21:20.954Z,7.40
2019-05-10T20:23:49.531Z,5.90
2019-05-10T20:26:18.075Z,6.47
2019-05-10T20:28:46.662Z,11.87
2019-05-10T20:31:15.279Z,24.57
2019-05-10T20:33:43.957Z,29.53
2019-05-10T20:36:13.246Z,34.23
2019-05-10T20:38:41.887Z,26.10
2019-05-10T20:41:10.646Z,32.00
2019-05-10T20:43:39.311Z,28.47
2019-05-10T20:46:09.666Z,22.67
2019-05-10T20:48:38.063Z,17.27
2019-05-10T20:51:06.786Z,14.33
2019-05-10T20:53:35.533Z,14.73
2019-05-10T20:56:04.202Z,7.20
2019-05-10T20:58:32.684Z,5.33
2019-05-10T21:01:01.306Z,6.80
2019-05-10T21:03:29.898Z,4.33
2019-05-10T21:05:58.458Z,4.33
2019-05-10T21:08:27.021Z,3.97
2019-05-10T21:10:55.564Z,2.27
2019-05-10T21:13:24.171Z,2.13
2019-05-10T21:15:52.774Z,2.80
2019-05-10T21:18:21.324Z,2.70
2019-05-10T21:20:49.882Z,3.23
2019-05-10T21:23:18.491Z,2.23
2019-05-10T21:25:47.121Z,1.97
2019-05-10T21:28:15.675Z,3.40
2019-05-10T21:30:44.233Z,3.47
2019-05-10T21:33:12.895Z,3.23
2019-05-10T21:35:41.514Z,3.57
2019-05-10T21:38:10.055Z,4.20
2019-05-10T21:40:38.693Z,4.00
2019-05-10T21:43:07.275Z,3.27
2019-05-10T21:45:35.975Z,2.47
2019-05-10T21:48:04.695Z,4.40
2019-05-10T21:50:33.389Z,2.53
2019-05-10T21:53:02.076Z,2.17
2019-05-10T21:55:30.751Z,1.50
2019-05-10T21:57:59.291Z,2.17
2019-05-10T22:00:29.832Z,2.17
2019-05-10T22:02:58.435Z,2.10
2019-05-10T22:05:27.094Z,3.67
2019-05-10T22:07:55.674Z,3.13
2019-05-10T22:10:24.484Z,2.37
2019-05-10T22:12:53.131Z,2.87
2019-05-10T22:15:21.801Z,2.97
2019-05-10T22:17:50.459Z,1.50
2019-05-10T22:20:19.057Z,2.80
2019-05-10T22:22:47.773Z,3.33
2019-05-10T22:25:16.370Z,2.27
2019-05-10T22:27:44.950Z,1.83
2019-05-10T22:30:13.958Z,2.30
2019-05-10T22:32:42.541Z,1.43
2019-05-10T22:35:11.342Z,1.70
2019-05-10T22:37:39.968Z,2.23
2019-05-10T22:40:08.707Z,2.17
2019-05-10T22:42:37.381Z,2.80
2019-05-10T22:45:07.490Z,2.10
2019-05-10T22:47:36.095Z,2.30
2019-05-10T22:50:06.538Z,2.67
2019-05-10T22:52:35.305Z,3.23
2019-05-10T22:55:04.719Z,2.00
2019-05-10T22:57:33.390Z,3.80
2019-05-10T23:00:02.330Z,2.87
2019-05-10T23:02:31.016Z,2.70
2019-05-10T23:04:59.739Z,3.27
2019-05-10T23:07:28.366Z,3.00
2019-05-10T23:09:57.006Z,2.90
2019-05-10T23:12:25.610Z,3.17
2019-05-10T23:14:54.209Z,2.67
2019-05-10T23:17:22.793Z,2.43
2019-05-10T23:19:51.418Z,3.83
2019-05-10T23:22:20.257Z,3.40
2019-05-10T23:24:48.856Z,3.77
2019-05-10T23:27:17.926Z,2.80
2019-05-10T23:29:46.549Z,1.53
2019-05-10T23:32:15.159Z,2.27
2019-05-10T23:34:43.741Z,2.20
2019-05-10T23:37:12.478Z,2.07
2019-05-10T23:39:41.540Z,1.80
2019-05-10T23:42:10.221Z,1.83
2019-05-10T23:44:38.934Z,2.37
2019-05-10T23:47:07.682Z,1.83
2019-05-10T23:49:36.346Z,1.90
2019-05-10T23:52:05.924Z,2.33
2019-05-10T23:54:34.584Z,1.60
2019-05-10T23:57:03.252Z,2.07
2019-05-10T23:59:31.915Z,1.90
